SZN313 DFFD-DIAP
Flight info
| Callsign | SZN313 |
|---|---|
| Flight time | N/A |
| Altitude | 32000 |
| Route | TUMUT1N TUMUT UG859 ONARI/N0379F240 G859 ZANOU VADAK2D |
| Aircraft | B738/M-SDE2E3FGHIRWXY/LB1 |
Departure
| Time | 2026-04-23 17:16 |
|---|---|
| Airport | Ouagadougou Thomas Sankara International Airport (DFFD) |
Arrival
| Time | N/A |
|---|---|
| Airport | Félix-Houphouët-Boigny International Airport (DIAP) |
| Time | Latitude | Longitude | Altitude | Speed | Heading |
|---|---|---|---|---|---|
| 2026-04-23 16:51 | 12.35410 | -1.51394 | 1013 ft | 0 kts | 303° |
| 2026-04-23 16:55 | 12.35410 | -1.51393 | 1013 ft | 0 kts | 303° |
| 2026-04-23 17:07 | 12.35409 | -1.51392 | 1013 ft | 2 kts | 303° |
| 2026-04-23 17:07 | 12.35402 | -1.51381 | 1013 ft | 4 kts | 332° |
| 2026-04-23 17:08 | 12.35390 | -1.51369 | 1013 ft | 4 kts | 290° |
| 2026-04-23 17:08 | 12.35391 | -1.51351 | 1013 ft | 4 kts | 245° |
| 2026-04-23 17:08 | 12.35407 | -1.51334 | 1012 ft | 4 kts | 193° |
| 2026-04-23 17:08 | 12.35429 | -1.51328 | 1011 ft | 1 kts | 211° |
| 2026-04-23 17:11 | 12.35426 | -1.51330 | 1011 ft | 2 kts | 214° |
| 2026-04-23 17:11 | 12.35409 | -1.51342 | 1012 ft | 4 kts | 214° |
| 2026-04-23 17:11 | 12.35380 | -1.51362 | 1013 ft | 6 kts | 213° |
| 2026-04-23 17:11 | 12.35335 | -1.51391 | 1014 ft | 9 kts | 210° |
| 2026-04-23 17:12 | 12.35272 | -1.51372 | 1015 ft | 12 kts | 127° |
| 2026-04-23 17:12 | 12.35226 | -1.51314 | 1017 ft | 10 kts | 152° |
| 2026-04-23 17:12 | 12.35160 | -1.51339 | 1019 ft | 12 kts | 214° |
| 2026-04-23 17:12 | 12.35084 | -1.51390 | 1022 ft | 14 kts | 213° |
| 2026-04-23 17:13 | 12.35006 | -1.51442 | 1026 ft | 13 kts | 213° |
| 2026-04-23 17:13 | 12.34923 | -1.51496 | 1029 ft | 15 kts | 213° |
| 2026-04-23 17:13 | 12.34818 | -1.51567 | 1031 ft | 21 kts | 213° |
| 2026-04-23 17:13 | 12.34680 | -1.51660 | 1036 ft | 26 kts | 213° |
| 2026-04-23 17:14 | 12.34516 | -1.51768 | 1036 ft | 28 kts | 213° |
| 2026-04-23 17:14 | 12.34359 | -1.51873 | 1039 ft | 26 kts | 213° |
| 2026-04-23 17:14 | 12.34249 | -1.51957 | 1039 ft | 12 kts | 241° |
| 2026-04-23 17:14 | 12.34217 | -1.52020 | 1040 ft | 10 kts | 192° |
| 2026-04-23 17:15 | 12.34213 | -1.51969 | 1039 ft | 10 kts | 37° |
| 2026-04-23 17:15 | 12.34227 | -1.51960 | 1039 ft | 0 kts | 33° |
| 2026-04-23 17:15 | 12.34256 | -1.51941 | 1039 ft | 25 kts | 33° |
| 2026-04-23 17:16 | 12.34605 | -1.51709 | 1036 ft | 93 kts | 33° |
| 2026-04-23 17:16 | 12.35315 | -1.51236 | 1015 ft | 148 kts | 33° |
| 2026-04-23 17:16 | 12.35956 | -1.50805 | 1031 ft | 177 kts | 33° |
| 2026-04-23 17:16 | 12.37011 | -1.50121 | 1664 ft | 176 kts | 31° |
| 2026-04-23 17:17 | 12.38096 | -1.49428 | 2061 ft | 197 kts | 32° |
| 2026-04-23 17:17 | 12.39312 | -1.48633 | 2317 ft | 221 kts | 32° |
| 2026-04-23 17:17 | 12.40675 | -1.47726 | 2487 ft | 246 kts | 36° |
| 2026-04-23 17:17 | 12.41888 | -1.46424 | 2829 ft | 262 kts | 64° |
| 2026-04-23 17:18 | 12.41605 | -1.42806 | 4176 ft | 272 kts | 119° |
| 2026-04-23 17:18 | 12.40403 | -1.41293 | 4885 ft | 277 kts | 132° |
| 2026-04-23 17:18 | 12.39048 | -1.39880 | 5559 ft | 282 kts | 133° |
| 2026-04-23 17:19 | 12.37662 | -1.38451 | 6291 ft | 284 kts | 132° |
| 2026-04-23 17:19 | 12.36272 | -1.37002 | 6972 ft | 286 kts | 131° |
| 2026-04-23 17:19 | 12.34888 | -1.35544 | 7756 ft | 286 kts | 130° |
| 2026-04-23 17:19 | 12.33509 | -1.34085 | 8444 ft | 290 kts | 130° |
| 2026-04-23 17:20 | 12.32105 | -1.32593 | 9178 ft | 292 kts | 129° |
| 2026-04-23 17:20 | 12.29040 | -1.29761 | 10249 ft | 319 kts | 151° |
| 2026-04-23 17:21 | 12.24414 | -1.30005 | 10889 ft | 362 kts | 207° |
| 2026-04-23 17:21 | 12.22237 | -1.31344 | 11549 ft | 366 kts | 211° |
| 2026-04-23 17:21 | 12.17934 | -1.34230 | 12898 ft | 374 kts | 212° |
| 2026-04-23 17:22 | 12.15735 | -1.35684 | 13593 ft | 378 kts | 211° |
| 2026-04-23 17:22 | 12.11289 | -1.38548 | 15157 ft | 375 kts | 211° |
| 2026-04-23 17:23 | 12.06875 | -1.41335 | 16766 ft | 373 kts | 212° |
| 2026-04-23 17:23 | 12.04661 | -1.42728 | 17514 ft | 373 kts | 212° |
| 2026-04-23 17:23 | 12.00206 | -1.45527 | 18617 ft | 382 kts | 212° |
| 2026-04-23 17:24 | 11.97956 | -1.46944 | 19070 ft | 387 kts | 212° |
| 2026-04-23 17:24 | 11.95651 | -1.48394 | 19573 ft | 391 kts | 212° |
| 2026-04-23 17:24 | 11.90973 | -1.51331 | 20558 ft | 398 kts | 213° |
| 2026-04-23 17:25 | 11.86177 | -1.54331 | 21354 ft | 411 kts | 212° |
| 2026-04-23 17:25 | 11.83652 | -1.55732 | 21806 ft | 414 kts | 208° |
| 2026-04-23 17:26 | 11.78448 | -1.58322 | 22731 ft | 421 kts | 207° |
| 2026-04-23 17:26 | 11.73115 | -1.60942 | 23508 ft | 428 kts | 207° |
| 2026-04-23 17:27 | 11.67750 | -1.63623 | 24261 ft | 431 kts | 208° |
| 2026-04-23 17:27 | 11.65053 | -1.64982 | 24626 ft | 433 kts | 208° |
| 2026-04-23 17:27 | 11.62341 | -1.66351 | 24977 ft | 436 kts | 208° |
| 2026-04-23 17:27 | 11.59613 | -1.67731 | 25305 ft | 439 kts | 208° |
| 2026-04-23 17:28 | 11.56873 | -1.69116 | 25657 ft | 441 kts | 208° |
| 2026-04-23 17:28 | 11.54116 | -1.70510 | 25994 ft | 443 kts | 208° |
| 2026-04-23 17:28 | 11.51385 | -1.71890 | 26334 ft | 445 kts | 208° |
| 2026-04-23 17:28 | 11.48600 | -1.73297 | 26657 ft | 448 kts | 208° |
| 2026-04-23 17:29 | 11.45797 | -1.74712 | 26972 ft | 450 kts | 208° |
| 2026-04-23 17:29 | 11.42981 | -1.76134 | 27290 ft | 453 kts | 208° |
| 2026-04-23 17:29 | 11.37313 | -1.78993 | 28021 ft | 455 kts | 208° |
| 2026-04-23 17:30 | 11.34484 | -1.80419 | 28513 ft | 453 kts | 208° |
| 2026-04-23 17:30 | 11.28844 | -1.83262 | 29422 ft | 451 kts | 208° |
| 2026-04-23 17:30 | 11.26035 | -1.84678 | 29868 ft | 450 kts | 208° |
| 2026-04-23 17:31 | 11.23230 | -1.86092 | 30280 ft | 449 kts | 208° |
| 2026-04-23 17:31 | 11.20442 | -1.87497 | 30778 ft | 445 kts | 208° |
| 2026-04-23 17:31 | 11.17676 | -1.88890 | 31207 ft | 443 kts | 208° |
| 2026-04-23 17:31 | 11.14903 | -1.90288 | 31414 ft | 444 kts | 208° |
| 2026-04-23 17:32 | 11.12136 | -1.91683 | 31655 ft | 442 kts | 208° |
| 2026-04-23 17:32 | 11.09391 | -1.93067 | 31709 ft | 438 kts | 208° |
| 2026-04-23 17:32 | 11.03961 | -1.95804 | 31727 ft | 437 kts | 208° |
| 2026-04-23 17:33 | 10.98445 | -1.98487 | 31740 ft | 443 kts | 204° |
| 2026-04-23 17:33 | 10.92676 | -2.00519 | 31744 ft | 445 kts | 199° |
| 2026-04-23 17:34 | 10.86862 | -2.02384 | 31720 ft | 437 kts | 200° |
| 2026-04-23 17:35 | 10.78172 | -2.05298 | 31737 ft | 439 kts | 200° |
| 2026-04-23 17:35 | 10.69467 | -2.08289 | 31739 ft | 441 kts | 200° |
| 2026-04-23 17:36 | 10.63650 | -2.10290 | 31735 ft | 442 kts | 200° |
| 2026-04-23 17:36 | 10.57826 | -2.12292 | 31729 ft | 442 kts | 200° |
| 2026-04-23 17:37 | 10.52016 | -2.14286 | 31733 ft | 440 kts | 199° |
| 2026-04-23 17:38 | 10.43361 | -2.17255 | 31728 ft | 436 kts | 199° |
| 2026-04-23 17:38 | 10.37632 | -2.19221 | 31736 ft | 433 kts | 199° |
| 2026-04-23 17:39 | 10.31921 | -2.21181 | 31741 ft | 433 kts | 199° |
| 2026-04-23 17:39 | 10.26216 | -2.23139 | 31747 ft | 433 kts | 199° |
| 2026-04-23 17:40 | 10.20504 | -2.25096 | 31745 ft | 434 kts | 199° |
| 2026-04-23 17:40 | 10.14805 | -2.27050 | 31747 ft | 435 kts | 199° |
| 2026-04-23 17:41 | 10.09043 | -2.29028 | 31750 ft | 437 kts | 199° |
| 2026-04-23 17:41 | 10.00370 | -2.32008 | 31757 ft | 439 kts | 199° |
| 2026-04-23 17:42 | 9.91688 | -2.34990 | 31755 ft | 439 kts | 199° |
| 2026-04-23 17:43 | 9.88795 | -2.35984 | 31754 ft | 438 kts | 199° |